sensor_id;sensor_type;location;lat;lon;timestamp;P1;durP1;ratioP1;P2;durP2;ratioP2
42244;SDS011;27912;51.828;5.688;2022-10-28T00:02:25;17.50;;;7.40;;
42244;SDS011;27912;51.828;5.688;2022-10-28T00:04:51;18.58;;;7.38;;
42244;SDS011;27912;51.828;5.688;2022-10-28T00:07:17;14.57;;;8.18;;
42244;SDS011;27912;51.828;5.688;2022-10-28T00:09:42;14.85;;;8.50;;
42244;SDS011;27912;51.828;5.688;2022-10-28T00:12:08;16.05;;;7.82;;
42244;SDS011;27912;51.828;5.688;2022-10-28T00:14:33;17.35;;;7.63;;
42244;SDS011;27912;51.828;5.688;2022-10-28T00:16:59;18.92;;;7.85;;
42244;SDS011;27912;51.828;5.688;2022-10-28T00:19:24;19.77;;;7.78;;
42244;SDS011;27912;51.828;5.688;2022-10-28T00:21:50;20.48;;;8.70;;
42244;SDS011;27912;51.828;5.688;2022-10-28T00:24:16;14.07;;;7.82;;
42244;SDS011;27912;51.828;5.688;2022-10-28T00:26:41;15.30;;;7.82;;
42244;SDS011;27912;51.828;5.688;2022-10-28T00:29:09;14.13;;;7.13;;
42244;SDS011;27912;51.828;5.688;2022-10-28T00:31:37;12.73;;;7.10;;
42244;SDS011;27912;51.828;5.688;2022-10-28T00:34:05;15.10;;;7.63;;
42244;SDS011;27912;51.828;5.688;2022-10-28T00:36:32;21.30;;;7.72;;
42244;SDS011;27912;51.828;5.688;2022-10-28T00:39:01;16.58;;;7.10;;
42244;SDS011;27912;51.828;5.688;2022-10-28T00:41:33;19.70;;;7.72;;
42244;SDS011;27912;51.828;5.688;2022-10-28T00:44:36;14.68;;;7.50;;
42244;SDS011;27912;51.828;5.688;2022-10-28T00:47:09;14.32;;;6.82;;
42244;SDS011;27912;51.828;5.688;2022-10-28T00:49:41;12.65;;;7.30;;
42244;SDS011;27912;51.828;5.688;2022-10-28T00:52:10;12.65;;;6.80;;
42244;SDS011;27912;51.828;5.688;2022-10-28T00:54:38;16.83;;;7.53;;
42244;SDS011;27912;51.828;5.688;2022-10-28T00:57:05;13.40;;;6.55;;
42244;SDS011;27912;51.828;5.688;2022-10-28T00:59:36;15.88;;;7.40;;
42244;SDS011;27912;51.828;5.688;2022-10-28T01:02:05;14.07;;;7.10;;
42244;SDS011;27912;51.828;5.688;2022-10-28T01:04:32;17.02;;;7.40;;
42244;SDS011;27912;51.828;5.688;2022-10-28T01:06:58;18.42;;;8.73;;
42244;SDS011;27912;51.828;5.688;2022-10-28T01:09:25;19.00;;;6.82;;
42244;SDS011;27912;51.828;5.688;2022-10-28T01:25:51;12.95;;;7.13;;
42244;SDS011;27912;51.828;5.688;2022-10-28T01:31:52;16.48;;;7.88;;
42244;SDS011;27912;51.828;5.688;2022-10-28T01:34:32;23.17;;;7.88;;
42244;SDS011;27912;51.828;5.688;2022-10-28T01:37:31;18.52;;;8.02;;
42244;SDS011;27912;51.828;5.688;2022-10-28T01:53:18;17.10;;;8.20;;
42244;SDS011;27912;51.828;5.688;2022-10-28T01:55:49;19.00;;;8.00;;
42244;SDS011;27912;51.828;5.688;2022-10-28T01:58:19;21.00;;;7.60;;
42244;SDS011;27912;51.828;5.688;2022-10-28T02:00:49;19.38;;;7.88;;
42244;SDS011;27912;51.828;5.688;2022-10-28T02:03:15;17.23;;;8.07;;
42244;SDS011;27912;51.828;5.688;2022-10-28T02:05:43;16.65;;;8.57;;
42244;SDS011;27912;51.828;5.688;2022-10-28T02:11:18;16.52;;;7.28;;
42244;SDS011;27912;51.828;5.688;2022-10-28T02:22:49;11.43;;;7.50;;
42244;SDS011;27912;51.828;5.688;2022-10-28T02:25:25;21.63;;;8.88;;
42244;SDS011;27912;51.828;5.688;2022-10-28T02:30:23;23.42;;;8.23;;
42244;SDS011;27912;51.828;5.688;2022-10-28T02:32:50;15.77;;;7.03;;
42244;SDS011;27912;51.828;5.688;2022-10-28T02:35:26;14.02;;;7.47;;
42244;SDS011;27912;51.828;5.688;2022-10-28T02:37:53;15.60;;;8.43;;
42244;SDS011;27912;51.828;5.688;2022-10-28T02:40:22;18.95;;;8.63;;
42244;SDS011;27912;51.828;5.688;2022-10-28T02:42:51;16.08;;;7.35;;
42244;SDS011;27912;51.828;5.688;2022-10-28T02:45:21;17.58;;;8.10;;
42244;SDS011;27912;51.828;5.688;2022-10-28T02:47:56;14.63;;;8.02;;
42244;SDS011;27912;51.828;5.688;2022-10-28T02:50:31;18.00;;;8.27;;
42244;SDS011;27912;51.828;5.688;2022-10-28T02:53:00;17.73;;;7.40;;
42244;SDS011;27912;51.828;5.688;2022-10-28T02:55:33;14.05;;;6.88;;
42244;SDS011;27912;51.828;5.688;2022-10-28T02:58:02;15.68;;;7.85;;
42244;SDS011;27912;51.828;5.688;2022-10-28T03:00:29;13.10;;;6.97;;
42244;SDS011;27912;51.828;5.688;2022-10-28T03:02:55;19.30;;;7.18;;
42244;SDS011;27912;51.828;5.688;2022-10-28T03:05:20;15.20;;;7.80;;
42244;SDS011;27912;51.828;5.688;2022-10-28T03:07:46;16.52;;;6.70;;
42244;SDS011;27912;51.828;5.688;2022-10-28T03:10:11;20.23;;;7.22;;
42244;SDS011;27912;51.828;5.688;2022-10-28T03:12:37;15.43;;;7.60;;
42244;SDS011;27912;51.828;5.688;2022-10-28T03:15:03;20.40;;;7.10;;
42244;SDS011;27912;51.828;5.688;2022-10-28T03:17:29;17.13;;;7.43;;
42244;SDS011;27912;51.828;5.688;2022-10-28T03:19:54;13.75;;;6.70;;
42244;SDS011;27912;51.828;5.688;2022-10-28T03:22:20;15.25;;;7.35;;
42244;SDS011;27912;51.828;5.688;2022-10-28T03:24:46;14.55;;;7.38;;
42244;SDS011;27912;51.828;5.688;2022-10-28T03:27:11;16.65;;;6.88;;
42244;SDS011;27912;51.828;5.688;2022-10-28T03:29:37;14.77;;;7.32;;
42244;SDS011;27912;51.828;5.688;2022-10-28T03:32:03;16.15;;;7.07;;
42244;SDS011;27912;51.828;5.688;2022-10-28T03:34:28;16.52;;;7.45;;
42244;SDS011;27912;51.828;5.688;2022-10-28T03:36:54;12.73;;;6.50;;
42244;SDS011;27912;51.828;5.688;2022-10-28T03:39:20;15.65;;;6.43;;
42244;SDS011;27912;51.828;5.688;2022-10-28T03:41:45;14.75;;;6.15;;
42244;SDS011;27912;51.828;5.688;2022-10-28T03:44:11;13.95;;;6.82;;
42244;SDS011;27912;51.828;5.688;2022-10-28T03:46:37;16.85;;;6.22;;
42244;SDS011;27912;51.828;5.688;2022-10-28T03:49:02;17.00;;;6.38;;
42244;SDS011;27912;51.828;5.688;2022-10-28T03:51:28;15.52;;;6.60;;
42244;SDS011;27912;51.828;5.688;2022-10-28T03:53:54;13.70;;;7.07;;
42244;SDS011;27912;51.828;5.688;2022-10-28T03:56:19;12.70;;;6.50;;
42244;SDS011;27912;51.828;5.688;2022-10-28T03:58:48;11.05;;;6.18;;
42244;SDS011;27912;51.828;5.688;2022-10-28T04:01:14;13.80;;;6.05;;
42244;SDS011;27912;51.828;5.688;2022-10-28T04:03:40;12.75;;;6.03;;
42244;SDS011;27912;51.828;5.688;2022-10-28T04:06:06;18.73;;;7.00;;
42244;SDS011;27912;51.828;5.688;2022-10-28T04:08:34;13.48;;;6.55;;
42244;SDS011;27912;51.828;5.688;2022-10-28T04:11:00;19.25;;;6.80;;
42244;SDS011;27912;51.828;5.688;2022-10-28T04:13:25;12.98;;;5.65;;
42244;SDS011;27912;51.828;5.688;2022-10-28T04:15:51;12.23;;;5.78;;
42244;SDS011;27912;51.828;5.688;2022-10-28T04:18:17;16.27;;;6.18;;
42244;SDS011;27912;51.828;5.688;2022-10-28T04:20:43;16.88;;;6.00;;
42244;SDS011;27912;51.828;5.688;2022-10-28T04:23:12;13.48;;;6.50;;
42244;SDS011;27912;51.828;5.688;2022-10-28T04:25:40;16.23;;;6.30;;
42244;SDS011;27912;51.828;5.688;2022-10-28T04:28:05;11.60;;;5.70;;
42244;SDS011;27912;51.828;5.688;2022-10-28T04:30:31;12.90;;;5.88;;
42244;SDS011;27912;51.828;5.688;2022-10-28T04:32:57;11.43;;;6.05;;
42244;SDS011;27912;51.828;5.688;2022-10-28T04:35:22;22.55;;;6.47;;
42244;SDS011;27912;51.828;5.688;2022-10-28T04:37:48;13.73;;;6.55;;
42244;SDS011;27912;51.828;5.688;2022-10-28T04:40:14;15.20;;;5.60;;
42244;SDS011;27912;51.828;5.688;2022-10-28T04:42:40;20.20;;;6.60;;
42244;SDS011;27912;51.828;5.688;2022-10-28T04:45:06;13.95;;;6.57;;
42244;SDS011;27912;51.828;5.688;2022-10-28T04:47:32;14.35;;;6.07;;
42244;SDS011;27912;51.828;5.688;2022-10-28T04:49:57;17.30;;;5.82;;
42244;SDS011;27912;51.828;5.688;2022-10-28T04:52:23;14.77;;;5.57;;
42244;SDS011;27912;51.828;5.688;2022-10-28T04:54:49;13.02;;;6.15;;
42244;SDS011;27912;51.828;5.688;2022-10-28T04:57:14;15.43;;;6.25;;
42244;SDS011;27912;51.828;5.688;2022-10-28T04:59:40;17.67;;;5.75;;
42244;SDS011;27912;51.828;5.688;2022-10-28T05:02:05;10.45;;;5.70;;
42244;SDS011;27912;51.828;5.688;2022-10-28T05:04:31;15.32;;;6.00;;
42244;SDS011;27912;51.828;5.688;2022-10-28T05:06:56;10.88;;;5.40;;
42244;SDS011;27912;51.828;5.688;2022-10-28T05:09:22;11.80;;;5.50;;
42244;SDS011;27912;51.828;5.688;2022-10-28T05:11:47;13.93;;;5.28;;
42244;SDS011;27912;51.828;5.688;2022-10-28T05:14:13;20.13;;;5.97;;
42244;SDS011;27912;51.828;5.688;2022-10-28T05:16:38;11.57;;;5.95;;
42244;SDS011;27912;51.828;5.688;2022-10-28T05:19:04;16.90;;;5.80;;
42244;SDS011;27912;51.828;5.688;2022-10-28T05:21:29;9.63;;;5.15;;
42244;SDS011;27912;51.828;5.688;2022-10-28T05:23:55;12.05;;;5.57;;
42244;SDS011;27912;51.828;5.688;2022-10-28T05:26:21;13.13;;;5.72;;
42244;SDS011;27912;51.828;5.688;2022-10-28T05:28:49;11.10;;;5.13;;
42244;SDS011;27912;51.828;5.688;2022-10-28T05:31:16;12.68;;;5.30;;
42244;SDS011;27912;51.828;5.688;2022-10-28T05:33:42;15.48;;;5.53;;
42244;SDS011;27912;51.828;5.688;2022-10-28T05:36:07;9.10;;;5.18;;
42244;SDS011;27912;51.828;5.688;2022-10-28T05:38:33;21.60;;;5.22;;
42244;SDS011;27912;51.828;5.688;2022-10-28T05:40:59;15.32;;;5.43;;
42244;SDS011;27912;51.828;5.688;2022-10-28T05:43:24;12.93;;;5.78;;
42244;SDS011;27912;51.828;5.688;2022-10-28T05:45:51;11.68;;;5.75;;
42244;SDS011;27912;51.828;5.688;2022-10-28T05:48:17;17.88;;;5.63;;
42244;SDS011;27912;51.828;5.688;2022-10-28T05:50:43;11.98;;;5.60;;
42244;SDS011;27912;51.828;5.688;2022-10-28T05:53:09;12.85;;;6.05;;
42244;SDS011;27912;51.828;5.688;2022-10-28T05:55:34;14.15;;;5.60;;
42244;SDS011;27912;51.828;5.688;2022-10-28T05:58:00;14.80;;;6.55;;
42244;SDS011;27912;51.828;5.688;2022-10-28T06:00:27;14.48;;;5.70;;
42244;SDS011;27912;51.828;5.688;2022-10-28T06:03:00;13.98;;;5.35;;
42244;SDS011;27912;51.828;5.688;2022-10-28T06:05:33;17.27;;;6.70;;
42244;SDS011;27912;51.828;5.688;2022-10-28T06:07:59;13.35;;;5.60;;
42244;SDS011;27912;51.828;5.688;2022-10-28T06:10:25;15.05;;;6.07;;
42244;SDS011;27912;51.828;5.688;2022-10-28T06:12:53;15.98;;;6.55;;
42244;SDS011;27912;51.828;5.688;2022-10-28T06:15:19;17.80;;;6.10;;
42244;SDS011;27912;51.828;5.688;2022-10-28T06:17:46;10.40;;;5.63;;
42244;SDS011;27912;51.828;5.688;2022-10-28T06:20:15;21.42;;;5.93;;
42244;SDS011;27912;51.828;5.688;2022-10-28T06:27:40;13.43;;;6.40;;
42244;SDS011;27912;51.828;5.688;2022-10-28T06:30:05;16.42;;;6.40;;
42244;SDS011;27912;51.828;5.688;2022-10-28T06:32:31;14.98;;;5.68;;
42244;SDS011;27912;51.828;5.688;2022-10-28T06:34:57;18.58;;;5.88;;
42244;SDS011;27912;51.828;5.688;2022-10-28T06:37:23;16.75;;;6.50;;
42244;SDS011;27912;51.828;5.688;2022-10-28T06:39:49;19.60;;;6.28;;
42244;SDS011;27912;51.828;5.688;2022-10-28T06:42:16;17.27;;;5.60;;
42244;SDS011;27912;51.828;5.688;2022-10-28T06:44:42;16.50;;;6.45;;
42244;SDS011;27912;51.828;5.688;2022-10-28T06:47:08;18.08;;;5.80;;
42244;SDS011;27912;51.828;5.688;2022-10-28T06:49:34;21.80;;;6.68;;
42244;SDS011;27912;51.828;5.688;2022-10-28T06:51:59;16.33;;;5.78;;
42244;SDS011;27912;51.828;5.688;2022-10-28T06:54:25;18.73;;;5.80;;
42244;SDS011;27912;51.828;5.688;2022-10-28T06:56:50;27.50;;;6.70;;
42244;SDS011;27912;51.828;5.688;2022-10-28T06:59:16;16.70;;;6.95;;
42244;SDS011;27912;51.828;5.688;2022-10-28T07:01:41;23.25;;;6.82;;
42244;SDS011;27912;51.828;5.688;2022-10-28T07:04:09;16.85;;;5.65;;
42244;SDS011;27912;51.828;5.688;2022-10-28T07:06:36;13.43;;;6.00;;
42244;SDS011;27912;51.828;5.688;2022-10-28T07:09:02;17.35;;;6.55;;
42244;SDS011;27912;51.828;5.688;2022-10-28T07:11:28;24.27;;;7.25;;
42244;SDS011;27912;51.828;5.688;2022-10-28T07:13:53;18.52;;;6.28;;
42244;SDS011;27912;51.828;5.688;2022-10-28T07:16:19;17.23;;;5.95;;
42244;SDS011;27912;51.828;5.688;2022-10-28T07:18:45;15.38;;;6.65;;
42244;SDS011;27912;51.828;5.688;2022-10-28T07:21:10;17.77;;;6.47;;
42244;SDS011;27912;51.828;5.688;2022-10-28T07:23:37;36.70;;;9.18;;
42244;SDS011;27912;51.828;5.688;2022-10-28T07:26:03;21.08;;;6.65;;
42244;SDS011;27912;51.828;5.688;2022-10-28T07:28:29;34.40;;;8.80;;
42244;SDS011;27912;51.828;5.688;2022-10-28T07:30:59;29.98;;;8.38;;
42244;SDS011;27912;51.828;5.688;2022-10-28T07:33:26;22.00;;;8.57;;
42244;SDS011;27912;51.828;5.688;2022-10-28T07:35:51;20.63;;;6.85;;
42244;SDS011;27912;51.828;5.688;2022-10-28T07:38:17;15.50;;;6.93;;
42244;SDS011;27912;51.828;5.688;2022-10-28T07:40:43;16.48;;;7.28;;
42244;SDS011;27912;51.828;5.688;2022-10-28T07:43:09;15.63;;;7.60;;
42244;SDS011;27912;51.828;5.688;2022-10-28T07:45:37;20.80;;;7.03;;
42244;SDS011;27912;51.828;5.688;2022-10-28T07:48:03;17.58;;;6.95;;
42244;SDS011;27912;51.828;5.688;2022-10-28T07:50:29;15.13;;;6.53;;
42244;SDS011;27912;51.828;5.688;2022-10-28T07:52:54;17.92;;;7.22;;
42244;SDS011;27912;51.828;5.688;2022-10-28T07:55:20;17.67;;;7.00;;
42244;SDS011;27912;51.828;5.688;2022-10-28T07:57:46;14.73;;;6.97;;
42244;SDS011;27912;51.828;5.688;2022-10-28T08:00:13;14.98;;;7.15;;
42244;SDS011;27912;51.828;5.688;2022-10-28T08:02:39;16.52;;;7.30;;
42244;SDS011;27912;51.828;5.688;2022-10-28T08:05:04;19.77;;;7.38;;
42244;SDS011;27912;51.828;5.688;2022-10-28T08:07:30;14.18;;;6.30;;
42244;SDS011;27912;51.828;5.688;2022-10-28T08:09:56;17.58;;;7.18;;
42244;SDS011;27912;51.828;5.688;2022-10-28T08:12:22;18.63;;;6.88;;
42244;SDS011;27912;51.828;5.688;2022-10-28T08:14:48;13.30;;;6.90;;
42244;SDS011;27912;51.828;5.688;2022-10-28T08:17:14;17.65;;;7.18;;
42244;SDS011;27912;51.828;5.688;2022-10-28T08:19:40;15.45;;;5.97;;
42244;SDS011;27912;51.828;5.688;2022-10-28T08:22:06;15.35;;;6.50;;
42244;SDS011;27912;51.828;5.688;2022-10-28T08:24:31;11.02;;;5.40;;
42244;SDS011;27912;51.828;5.688;2022-10-28T08:26:57;12.32;;;6.50;;
42244;SDS011;27912;51.828;5.688;2022-10-28T08:29:23;14.15;;;6.15;;
42244;SDS011;27912;51.828;5.688;2022-10-28T08:31:48;10.80;;;5.97;;
42244;SDS011;27912;51.828;5.688;2022-10-28T08:34:14;23.20;;;7.22;;
42244;SDS011;27912;51.828;5.688;2022-10-28T08:36:40;14.25;;;6.03;;
42244;SDS011;27912;51.828;5.688;2022-10-28T08:39:05;21.17;;;7.63;;
42244;SDS011;27912;51.828;5.688;2022-10-28T08:49:47;16.95;;;6.50;;
42244;SDS011;27912;51.828;5.688;2022-10-28T08:57:48;12.40;;;5.88;;
42244;SDS011;27912;51.828;5.688;2022-10-28T09:00:34;19.38;;;6.55;;
42244;SDS011;27912;51.828;5.688;2022-10-28T09:05:36;12.57;;;5.55;;
42244;SDS011;27912;51.828;5.688;2022-10-28T09:08:04;14.73;;;6.05;;
42244;SDS011;27912;51.828;5.688;2022-10-28T09:13:12;12.55;;;4.90;;
42244;SDS011;27912;51.828;5.688;2022-10-28T09:16:13;13.52;;;4.90;;
42244;SDS011;27912;51.828;5.688;2022-10-28T09:18:50;20.10;;;5.03;;
42244;SDS011;27912;51.828;5.688;2022-10-28T09:21:19;14.18;;;5.10;;
42244;SDS011;27912;51.828;5.688;2022-10-28T09:23:57;12.15;;;4.63;;
42244;SDS011;27912;51.828;5.688;2022-10-28T09:26:31;13.23;;;4.70;;
42244;SDS011;27912;51.828;5.688;2022-10-28T09:29:12;16.30;;;5.10;;
42244;SDS011;27912;51.828;5.688;2022-10-28T09:31:51;15.30;;;4.88;;
42244;SDS011;27912;51.828;5.688;2022-10-28T09:34:37;11.02;;;3.60;;
42244;SDS011;27912;51.828;5.688;2022-10-28T09:37:16;9.13;;;4.90;;
42244;SDS011;27912;51.828;5.688;2022-10-28T09:40:12;13.70;;;3.92;;
42244;SDS011;27912;51.828;5.688;2022-10-28T09:43:03;12.30;;;4.07;;
42244;SDS011;27912;51.828;5.688;2022-10-28T09:45:34;17.27;;;4.20;;
42244;SDS011;27912;51.828;5.688;2022-10-28T09:50:51;12.63;;;3.97;;
42244;SDS011;27912;51.828;5.688;2022-10-28T09:56:04;12.75;;;3.83;;
42244;SDS011;27912;51.828;5.688;2022-10-28T09:58:31;13.75;;;4.18;;
42244;SDS011;27912;51.828;5.688;2022-10-28T10:00:58;9.55;;;3.35;;
42244;SDS011;27912;51.828;5.688;2022-10-28T10:03:24;15.85;;;3.90;;
42244;SDS011;27912;51.828;5.688;2022-10-28T10:05:50;11.68;;;4.15;;
42244;SDS011;27912;51.828;5.688;2022-10-28T10:08:19;12.75;;;3.92;;
42244;SDS011;27912;51.828;5.688;2022-10-28T10:10:56;14.10;;;3.47;;
42244;SDS011;27912;51.828;5.688;2022-10-28T10:13:27;10.45;;;3.17;;
42244;SDS011;27912;51.828;5.688;2022-10-28T10:16:00;15.05;;;3.20;;
42244;SDS011;27912;51.828;5.688;2022-10-28T10:18:31;11.60;;;3.40;;
42244;SDS011;27912;51.828;5.688;2022-10-28T10:20:57;10.07;;;3.17;;
42244;SDS011;27912;51.828;5.688;2022-10-28T10:23:30;11.10;;;4.13;;
42244;SDS011;27912;51.828;5.688;2022-10-28T10:28:29;13.75;;;3.97;;
42244;SDS011;27912;51.828;5.688;2022-10-28T10:30:59;11.27;;;3.75;;
42244;SDS011;27912;51.828;5.688;2022-10-28T10:33:28;13.90;;;4.03;;
42244;SDS011;27912;51.828;5.688;2022-10-28T10:35:59;18.17;;;4.40;;
42244;SDS011;27912;51.828;5.688;2022-10-28T10:38:28;11.60;;;3.28;;
42244;SDS011;27912;51.828;5.688;2022-10-28T10:40:55;11.73;;;3.70;;
42244;SDS011;27912;51.828;5.688;2022-10-28T10:43:31;13.02;;;3.15;;
42244;SDS011;27912;51.828;5.688;2022-10-28T10:49:05;10.88;;;3.85;;
42244;SDS011;27912;51.828;5.688;2022-10-28T10:51:36;13.60;;;3.50;;
42244;SDS011;27912;51.828;5.688;2022-10-28T10:54:05;16.65;;;3.70;;
42244;SDS011;27912;51.828;5.688;2022-10-28T10:56:37;7.95;;;3.38;;
42244;SDS011;27912;51.828;5.688;2022-10-28T10:59:02;9.73;;;3.40;;
42244;SDS011;27912;51.828;5.688;2022-10-28T11:01:37;10.95;;;3.55;;
42244;SDS011;27912;51.828;5.688;2022-10-28T11:04:04;9.55;;;3.60;;
42244;SDS011;27912;51.828;5.688;2022-10-28T11:06:32;15.50;;;3.50;;
42244;SDS011;27912;51.828;5.688;2022-10-28T11:11:55;7.05;;;2.78;;
42244;SDS011;27912;51.828;5.688;2022-10-28T11:14:23;13.57;;;4.43;;
42244;SDS011;27912;51.828;5.688;2022-10-28T11:16:54;8.88;;;2.40;;
42244;SDS011;27912;51.828;5.688;2022-10-28T11:19:32;12.75;;;3.30;;
42244;SDS011;27912;51.828;5.688;2022-10-28T11:27:37;9.38;;;2.47;;
42244;SDS011;27912;51.828;5.688;2022-10-28T11:30:19;11.43;;;3.15;;
42244;SDS011;27912;51.828;5.688;2022-10-28T11:38:07;10.73;;;2.97;;
42244;SDS011;27912;51.828;5.688;2022-10-28T11:43:51;9.13;;;2.30;;
42244;SDS011;27912;51.828;5.688;2022-10-28T11:51:58;9.77;;;2.30;;
42244;SDS011;27912;51.828;5.688;2022-10-28T11:57:43;11.52;;;2.35;;
42244;SDS011;27912;51.828;5.688;2022-10-28T12:09:16;14.43;;;2.35;;
42244;SDS011;27912;51.828;5.688;2022-10-28T12:11:37;16.13;;;2.95;;
42244;SDS011;27912;51.828;5.688;2022-10-28T12:14:20;8.88;;;2.15;;
42244;SDS011;27912;51.828;5.688;2022-10-28T12:17:01;13.00;;;2.13;;
42244;SDS011;27912;51.828;5.688;2022-10-28T12:19:31;9.82;;;2.17;;
42244;SDS011;27912;51.828;5.688;2022-10-28T12:22:08;11.90;;;2.13;;
42244;SDS011;27912;51.828;5.688;2022-10-28T12:24:35;12.60;;;2.33;;
42244;SDS011;27912;51.828;5.688;2022-10-28T12:27:07;12.68;;;2.22;;
42244;SDS011;27912;51.828;5.688;2022-10-28T12:29:40;6.35;;;1.90;;
42244;SDS011;27912;51.828;5.688;2022-10-28T12:32:13;13.77;;;2.40;;
42244;SDS011;27912;51.828;5.688;2022-10-28T12:34:45;7.40;;;1.92;;
42244;SDS011;27912;51.828;5.688;2022-10-28T12:37:22;5.60;;;1.40;;
42244;SDS011;27912;51.828;5.688;2022-10-28T12:43:15;13.88;;;2.42;;
42244;SDS011;27912;51.828;5.688;2022-10-28T12:46:02;11.70;;;2.83;;
42244;SDS011;27912;51.828;5.688;2022-10-28T12:48:38;8.73;;;2.60;;
42244;SDS011;27912;51.828;5.688;2022-10-28T12:51:11;6.57;;;2.08;;
42244;SDS011;27912;51.828;5.688;2022-10-28T12:53:55;14.88;;;2.33;;
42244;SDS011;27912;51.828;5.688;2022-10-28T12:56:36;8.05;;;2.00;;
42244;SDS011;27912;51.828;5.688;2022-10-28T12:59:10;7.90;;;1.75;;
42244;SDS011;27912;51.828;5.688;2022-10-28T13:01:44;9.32;;;1.92;;
42244;SDS011;27912;51.828;5.688;2022-10-28T13:04:12;10.10;;;2.03;;
42244;SDS011;27912;51.828;5.688;2022-10-28T13:14:51;11.02;;;2.78;;
42244;SDS011;27912;51.828;5.688;2022-10-28T13:22:46;7.97;;;2.03;;
42244;SDS011;27912;51.828;5.688;2022-10-28T13:25:22;7.70;;;1.70;;
42244;SDS011;27912;51.828;5.688;2022-10-28T13:28:17;11.18;;;2.45;;
42244;SDS011;27912;51.828;5.688;2022-10-28T13:30:56;9.80;;;1.90;;
42244;SDS011;27912;51.828;5.688;2022-10-28T13:33:24;10.60;;;2.63;;
42244;SDS011;27912;51.828;5.688;2022-10-28T13:35:52;10.63;;;2.22;;
42244;SDS011;27912;51.828;5.688;2022-10-28T13:38:23;8.38;;;2.15;;
42244;SDS011;27912;51.828;5.688;2022-10-28T13:49:23;15.50;;;2.70;;
42244;SDS011;27912;51.828;5.688;2022-10-28T13:51:59;11.30;;;2.33;;
42244;SDS011;27912;51.828;5.688;2022-10-28T13:59:48;10.95;;;2.35;;
42244;SDS011;27912;51.828;5.688;2022-10-28T14:02:22;12.65;;;4.05;;
42244;SDS011;27912;51.828;5.688;2022-10-28T14:05:02;11.60;;;2.50;;
42244;SDS011;27912;51.828;5.688;2022-10-28T14:07:31;13.32;;;2.45;;
42244;SDS011;27912;51.828;5.688;2022-10-28T14:10:21;12.48;;;2.38;;
42244;SDS011;27912;51.828;5.688;2022-10-28T14:12:51;11.85;;;2.00;;
42244;SDS011;27912;51.828;5.688;2022-10-28T14:15:21;7.88;;;1.83;;
42244;SDS011;27912;51.828;5.688;2022-10-28T14:17:57;10.05;;;2.40;;
42244;SDS011;27912;51.828;5.688;2022-10-28T14:20:34;10.27;;;2.97;;
42244;SDS011;27912;51.828;5.688;2022-10-28T14:41:54;13.48;;;2.35;;
42244;SDS011;27912;51.828;5.688;2022-10-28T14:44:27;10.10;;;2.50;;
42244;SDS011;27912;51.828;5.688;2022-10-28T14:50:02;12.63;;;2.15;;
42244;SDS011;27912;51.828;5.688;2022-10-28T14:52:32;11.45;;;2.40;;
42244;SDS011;27912;51.828;5.688;2022-10-28T14:55:01;10.90;;;2.10;;
42244;SDS011;27912;51.828;5.688;2022-10-28T14:57:30;8.93;;;2.15;;
42244;SDS011;27912;51.828;5.688;2022-10-28T14:59:59;11.32;;;2.05;;
42244;SDS011;27912;51.828;5.688;2022-10-28T15:02:27;9.63;;;2.17;;
42244;SDS011;27912;51.828;5.688;2022-10-28T15:07:44;7.03;;;2.13;;
42244;SDS011;27912;51.828;5.688;2022-10-28T15:10:25;9.77;;;3.22;;
42244;SDS011;27912;51.828;5.688;2022-10-28T15:12:54;7.70;;;2.67;;
42244;SDS011;27912;51.828;5.688;2022-10-28T15:15:25;13.40;;;2.55;;
42244;SDS011;27912;51.828;5.688;2022-10-28T15:17:53;6.30;;;2.17;;
42244;SDS011;27912;51.828;5.688;2022-10-28T15:20:26;10.43;;;2.05;;
42244;SDS011;27912;51.828;5.688;2022-10-28T15:23:09;8.40;;;1.83;;
42244;SDS011;27912;51.828;5.688;2022-10-28T15:25:36;7.38;;;2.10;;
42244;SDS011;27912;51.828;5.688;2022-10-28T15:28:02;12.10;;;2.65;;
42244;SDS011;27912;51.828;5.688;2022-10-28T15:30:28;13.52;;;2.63;;
42244;SDS011;27912;51.828;5.688;2022-10-28T15:33:16;12.50;;;2.75;;
42244;SDS011;27912;51.828;5.688;2022-10-28T15:35:52;12.02;;;2.55;;
42244;SDS011;27912;51.828;5.688;2022-10-28T15:38:35;8.95;;;2.10;;
42244;SDS011;27912;51.828;5.688;2022-10-28T15:43:53;15.88;;;2.85;;
42244;SDS011;27912;51.828;5.688;2022-10-28T15:46:23;11.82;;;3.08;;
42244;SDS011;27912;51.828;5.688;2022-10-28T15:48:50;14.60;;;3.53;;
42244;SDS011;27912;51.828;5.688;2022-10-28T15:51:17;10.00;;;2.80;;
42244;SDS011;27912;51.828;5.688;2022-10-28T15:53:47;13.32;;;3.03;;
42244;SDS011;27912;51.828;5.688;2022-10-28T15:56:19;14.65;;;3.85;;
42244;SDS011;27912;51.828;5.688;2022-10-28T16:01:27;7.13;;;2.75;;
42244;SDS011;27912;51.828;5.688;2022-10-28T16:06:47;10.57;;;3.00;;
42244;SDS011;27912;51.828;5.688;2022-10-28T16:09:18;10.55;;;3.08;;
42244;SDS011;27912;51.828;5.688;2022-10-28T16:11:52;10.82;;;3.53;;
42244;SDS011;27912;51.828;5.688;2022-10-28T16:17:03;12.20;;;3.45;;
42244;SDS011;27912;51.828;5.688;2022-10-28T16:19:52;16.42;;;4.43;;
42244;SDS011;27912;51.828;5.688;2022-10-28T16:22:21;12.65;;;3.72;;
42244;SDS011;27912;51.828;5.688;2022-10-28T16:24:48;12.70;;;3.65;;
42244;SDS011;27912;51.828;5.688;2022-10-28T16:27:17;15.40;;;3.67;;
42244;SDS011;27912;51.828;5.688;2022-10-28T16:29:44;13.25;;;3.45;;
42244;SDS011;27912;51.828;5.688;2022-10-28T16:32:10;10.88;;;3.28;;
42244;SDS011;27912;51.828;5.688;2022-10-28T16:34:37;12.80;;;3.50;;
42244;SDS011;27912;51.828;5.688;2022-10-28T16:37:08;13.80;;;4.05;;
42244;SDS011;27912;51.828;5.688;2022-10-28T16:39:49;17.83;;;3.72;;
42244;SDS011;27912;51.828;5.688;2022-10-28T16:42:15;9.98;;;3.30;;
42244;SDS011;27912;51.828;5.688;2022-10-28T16:44:42;16.08;;;3.35;;
42244;SDS011;27912;51.828;5.688;2022-10-28T16:47:11;16.70;;;4.63;;
42244;SDS011;27912;51.828;5.688;2022-10-28T16:49:39;12.70;;;3.95;;
42244;SDS011;27912;51.828;5.688;2022-10-28T16:52:06;15.20;;;3.78;;
42244;SDS011;27912;51.828;5.688;2022-10-28T16:54:40;15.43;;;4.03;;
42244;SDS011;27912;51.828;5.688;2022-10-28T16:57:06;11.48;;;3.83;;
42244;SDS011;27912;51.828;5.688;2022-10-28T16:59:32;13.27;;;3.83;;
42244;SDS011;27912;51.828;5.688;2022-10-28T17:01:57;17.02;;;5.18;;
42244;SDS011;27912;51.828;5.688;2022-10-28T17:04:23;12.00;;;3.80;;
42244;SDS011;27912;51.828;5.688;2022-10-28T17:06:49;15.05;;;4.15;;
42244;SDS011;27912;51.828;5.688;2022-10-28T17:09:14;11.68;;;4.60;;
42244;SDS011;27912;51.828;5.688;2022-10-28T17:11:40;10.43;;;4.28;;
42244;SDS011;27912;51.828;5.688;2022-10-28T17:14:05;11.55;;;4.10;;
42244;SDS011;27912;51.828;5.688;2022-10-28T17:16:31;16.17;;;4.18;;
42244;SDS011;27912;51.828;5.688;2022-10-28T17:18:57;10.88;;;3.63;;
42244;SDS011;27912;51.828;5.688;2022-10-28T17:21:22;15.02;;;4.35;;
42244;SDS011;27912;51.828;5.688;2022-10-28T17:23:48;12.10;;;4.07;;
42244;SDS011;27912;51.828;5.688;2022-10-28T17:26:14;13.93;;;4.72;;
42244;SDS011;27912;51.828;5.688;2022-10-28T17:28:39;15.75;;;5.32;;
42244;SDS011;27912;51.828;5.688;2022-10-28T17:31:05;15.80;;;4.45;;
42244;SDS011;27912;51.828;5.688;2022-10-28T17:33:32;13.45;;;4.00;;
42244;SDS011;27912;51.828;5.688;2022-10-28T17:36:02;15.15;;;3.95;;
42244;SDS011;27912;51.828;5.688;2022-10-28T17:38:29;15.00;;;4.82;;
42244;SDS011;27912;51.828;5.688;2022-10-28T17:40:54;14.10;;;4.10;;
42244;SDS011;27912;51.828;5.688;2022-10-28T17:43:20;14.18;;;4.85;;
42244;SDS011;27912;51.828;5.688;2022-10-28T17:45:46;14.15;;;4.32;;
42244;SDS011;27912;51.828;5.688;2022-10-28T17:48:12;12.32;;;4.35;;
42244;SDS011;27912;51.828;5.688;2022-10-28T17:50:37;13.88;;;4.80;;